Time;durP1;ratioP1;P1;durP2;ratioP2;P2;SDS_P1;SDS_P2;PMS_P1;PMS_P2;Temp;Humidity;BMP_temperature;BMP_pressure;BME280_temperature;BME280_humidity;BME280_pressure;Samples;Min_cycle;Max_cycle;Signal;HPM_P1;HPM_P2
2022/02/18 00:00:18;;;;;;;;;;;18.90;57.70;;;;;;5054800;28;1340;-68
2022/02/18 00:02:44;;;;;;;;;;;18.90;57.70;;;;;;5053980;28;1288;-68
2022/02/18 00:05:10;;;;;;;;;;;18.80;57.70;;;;;;5055007;28;1426;-68
2022/02/18 00:07:35;;;;;;;;;;;18.80;57.70;;;;;;5040778;28;1255;-68
2022/02/18 00:10:01;;;;;;;;;;;18.80;57.80;;;;;;5053100;28;1906;-68
2022/02/18 00:12:26;;;;;;;;;;;18.80;57.80;;;;;;5054879;28;1391;-68
2022/02/18 00:14:52;;;;;;;;;;;18.90;58.40;;;;;;5054793;28;1350;-68
2022/02/18 00:17:17;;;;;;;;;;;18.80;57.80;;;;;;5053663;28;1396;-68
2022/02/18 00:19:42;;;;;;;;;;;18.80;57.80;;;;;;5054525;28;1352;-68
2022/02/18 00:22:08;;;;;;;;;;;18.80;57.90;;;;;;5053498;28;1725;-68
2022/02/18 00:24:33;;;;;;;;;;;18.80;57.90;;;;;;5054633;28;1343;-68
2022/02/18 00:26:59;;;;;;;;;;;18.80;57.90;;;;;;5054446;28;1077;-68
2022/02/18 00:29:24;;;;;;;;;;;18.80;57.90;;;;;;5054186;28;1968;-68
2022/02/18 00:31:50;;;;;;;;;;;18.80;57.90;;;;;;5054569;28;1373;-68
2022/02/18 00:34:15;;;;;;;;;;;18.80;58.00;;;;;;5052171;28;1343;-68
2022/02/18 00:36:41;;;;;;;;;;;18.80;58.00;;;;;;5054607;28;1319;-68
2022/02/18 00:39:06;;;;;;;;;;;18.80;58.00;;;;;;5054355;28;1098;-68
2022/02/18 00:41:32;;;;;;;;;;;18.80;58.00;;;;;;5054090;28;1382;-67
2022/02/18 00:43:57;;;;;;;;;;;18.80;58.00;;;;;;5054252;28;1076;-68
2022/02/18 00:46:22;;;;;;;;;;;18.80;58.00;;;;;;5053277;28;1335;-68
2022/02/18 00:48:48;;;;;;;;;;;18.80;58.00;;;;;;5053931;28;1906;-68
2022/02/18 00:51:13;;;;;;;;;;;18.70;58.00;;;;;;5053210;28;1075;-68
2022/02/18 00:53:39;;;;;;;;;;;18.80;58.10;;;;;;5054167;28;1324;-68
2022/02/18 00:56:04;;;;;;;;;;;18.80;58.10;;;;;;5052476;28;1187;-68
2022/02/18 00:58:30;;;;;;;;;;;18.70;58.00;;;;;;5052725;28;1326;-68
2022/02/18 01:00:55;;;;;;;;;;;18.70;58.10;;;;;;5054064;28;1297;-68
2022/02/18 01:03:21;;;;;;;;;;;18.70;58.10;;;;;;5054105;28;1367;-68
2022/02/18 01:05:47;;;;;;;;;;;18.70;58.10;;;;;;5052875;28;1118;-68
2022/02/18 01:08:12;;;;;;;;;;;18.70;58.10;;;;;;5053800;28;1910;-68
2022/02/18 01:10:38;;;;;;;;;;;18.70;58.10;;;;;;5054045;28;1322;-68
2022/02/18 01:13:03;;;;;;;;;;;18.70;58.10;;;;;;5052690;28;1569;-68
2022/02/18 01:15:29;;;;;;;;;;;18.70;58.10;;;;;;5054125;28;1062;-68
2022/02/18 01:17:54;;;;;;;;;;;18.70;58.20;;;;;;5053720;28;1394;-68
2022/02/18 01:20:20;;;;;;;;;;;18.70;58.20;;;;;;5053471;28;1327;-68
2022/02/18 01:22:45;;;;;;;;;;;18.70;58.20;;;;;;5053738;28;1410;-68
2022/02/18 01:25:11;;;;;;;;;;;18.70;58.20;;;;;;5053180;28;1331;-68
2022/02/18 01:27:36;;;;;;;;;;;18.70;58.20;;;;;;5053563;28;1310;-68
2022/02/18 01:30:02;;;;;;;;;;;18.60;58.20;;;;;;5053268;28;1969;-68
2022/02/18 01:32:28;;;;;;;;;;;18.70;58.20;;;;;;5053727;28;1355;-68
2022/02/18 01:34:53;;;;;;;;;;;18.60;58.20;;;;;;5051955;28;1295;-68
2022/02/18 01:37:18;;;;;;;;;;;18.70;58.30;;;;;;5018832;28;1309;-68
2022/02/18 01:39:44;;;;;;;;;;;18.70;58.30;;;;;;5042719;28;1059;-68
2022/02/18 01:42:09;;;;;;;;;;;18.60;58.20;;;;;;5053410;28;1316;-68
2022/02/18 01:44:37;;;;;;;;;;;18.70;58.30;;;;;;5052035;28;1356;-68
2022/02/18 01:47:03;;;;;;;;;;;18.70;58.30;;;;;;5051668;28;1347;-68
2022/02/18 01:49:29;;;;;;;;;;;18.60;58.20;;;;;;5052058;28;2255;-68
2022/02/18 01:51:55;;;;;;;;;;;18.70;58.30;;;;;;5051784;28;1551;-68
2022/02/18 01:54:20;;;;;;;;;;;18.60;58.30;;;;;;5052079;28;1370;-67
2022/02/18 01:56:46;;;;;;;;;;;18.60;58.30;;;;;;5053308;28;1756;-67
2022/02/18 01:59:11;;;;;;;;;;;18.60;58.30;;;;;;5051016;28;1087;-67
2022/02/18 02:01:37;;;;;;;;;;;18.60;58.30;;;;;;5052541;28;1288;-67
2022/02/18 02:04:02;;;;;;;;;;;18.60;58.30;;;;;;5051221;28;1083;-67
2022/02/18 02:06:28;;;;;;;;;;;18.60;58.30;;;;;;5052355;28;1103;-68
2022/02/18 02:08:53;;;;;;;;;;;18.60;58.30;;;;;;5050830;28;1909;-67
2022/02/18 02:11:18;;;;;;;;;;;18.60;58.30;;;;;;5052218;28;1349;-67
2022/02/18 02:13:45;;;;;;;;;;;18.60;58.30;;;;;;5052374;28;1554;-69
2022/02/18 02:16:14;;;;;;;;;;;18.60;58.40;;;;;;5052310;28;1106;-67
2022/02/18 02:18:39;;;;;;;;;;;18.60;58.40;;;;;;5051060;28;1268;-67
2022/02/18 02:21:04;;;;;;;;;;;18.60;58.40;;;;;;5051051;28;1414;-68
2022/02/18 02:23:30;;;;;;;;;;;18.60;58.40;;;;;;5051997;28;1205;-67
2022/02/18 02:25:55;;;;;;;;;;;18.60;58.40;;;;;;5052151;28;1231;-66
2022/02/18 02:28:21;;;;;;;;;;;18.60;58.40;;;;;;5052122;28;1914;-67
2022/02/18 02:30:46;;;;;;;;;;;18.60;58.50;;;;;;5050998;28;1193;-67
2022/02/18 02:33:12;;;;;;;;;;;18.60;58.40;;;;;;5052263;28;1404;-68
2022/02/18 02:35:37;;;;;;;;;;;18.60;58.40;;;;;;5052421;28;1338;-67
2022/02/18 02:38:03;;;;;;;;;;;18.50;58.40;;;;;;5050773;28;1310;-69
2022/02/18 02:40:29;;;;;;;;;;;18.60;58.50;;;;;;5050784;28;1391;-68
2022/02/18 02:42:55;;;;;;;;;;;18.60;58.50;;;;;;5051234;28;1427;-67
2022/02/18 02:45:20;;;;;;;;;;;18.60;58.50;;;;;;5052799;28;1394;-67
2022/02/18 02:47:46;;;;;;;;;;;18.50;58.50;;;;;;5052445;28;1335;-68
2022/02/18 02:50:12;;;;;;;;;;;18.50;58.40;;;;;;5051919;28;1878;-68
2022/02/18 02:52:37;;;;;;;;;;;18.50;58.50;;;;;;5050877;28;1330;-68
2022/02/18 02:55:03;;;;;;;;;;;18.50;58.50;;;;;;5051040;28;1419;-68
2022/02/18 02:57:29;;;;;;;;;;;18.50;58.50;;;;;;5052203;28;1088;-68
2022/02/18 02:59:54;;;;;;;;;;;18.50;58.50;;;;;;5056266;28;1394;-66
2022/02/18 03:02:20;;;;;;;;;;;18.50;58.50;;;;;;5054949;28;1276;-68
2022/02/18 03:04:45;;;;;;;;;;;18.50;58.50;;;;;;5055996;28;1325;-66
2022/02/18 03:07:11;;;;;;;;;;;18.50;58.50;;;;;;5056673;28;1527;-68
2022/02/18 03:09:36;;;;;;;;;;;18.50;58.50;;;;;;5055882;28;1926;-67
2022/02/18 03:12:01;;;;;;;;;;;18.50;58.50;;;;;;5054663;28;1309;-67
2022/02/18 03:14:27;;;;;;;;;;;18.50;58.50;;;;;;5055024;28;1386;-67
2022/02/18 03:16:52;;;;;;;;;;;18.50;58.50;;;;;;5056072;28;1338;-68
2022/02/18 03:19:18;;;;;;;;;;;18.50;58.50;;;;;;5054371;28;1268;-67
2022/02/18 03:21:43;;;;;;;;;;;18.50;58.50;;;;;;5055749;28;1284;-67
2022/02/18 03:24:09;;;;;;;;;;;18.50;58.60;;;;;;5055557;28;1280;-67
2022/02/18 03:26:34;;;;;;;;;;;18.50;58.60;;;;;;5055816;28;1327;-67
2022/02/18 03:28:59;;;;;;;;;;;18.50;58.60;;;;;;5052124;28;1894;-66
2022/02/18 03:31:25;;;;;;;;;;;18.50;58.60;;;;;;5047171;28;1230;-65
2022/02/18 03:33:50;;;;;;;;;;;18.50;58.60;;;;;;5045677;28;1251;-66
2022/02/18 03:36:16;;;;;;;;;;;18.50;58.60;;;;;;5044470;28;1251;-67
2022/02/18 03:38:41;;;;;;;;;;;18.50;58.60;;;;;;5044716;28;1230;-66
2022/02/18 03:41:07;;;;;;;;;;;18.50;58.60;;;;;;5044739;28;1236;-66
2022/02/18 03:43:32;;;;;;;;;;;18.50;58.60;;;;;;5045790;28;1367;-66
2022/02/18 03:45:58;;;;;;;;;;;18.50;58.60;;;;;;5044829;28;1247;-68
2022/02/18 03:48:23;;;;;;;;;;;18.40;58.60;;;;;;5051576;28;1965;-67
2022/02/18 03:50:48;;;;;;;;;;;18.50;58.60;;;;;;5055306;28;1256;-67
2022/02/18 03:53:14;;;;;;;;;;;18.50;58.70;;;;;;5055077;28;1398;-67
2022/02/18 03:55:40;;;;;;;;;;;18.40;58.60;;;;;;5055235;28;1275;-67
2022/02/18 03:58:05;;;;;;;;;;;18.50;58.70;;;;;;5054060;28;1306;-67
2022/02/18 04:00:31;;;;;;;;;;;18.50;58.70;;;;;;5037304;28;1161;-68
2022/02/18 04:02:56;;;;;;;;;;;18.40;58.60;;;;;;5037143;28;1351;-69
2022/02/18 04:05:21;;;;;;;;;;;18.40;58.60;;;;;;5054940;28;1119;-68
2022/02/18 04:07:47;;;;;;;;;;;18.40;58.60;;;;;;5053640;28;1402;-67
2022/02/18 04:10:13;;;;;;;;;;;18.40;58.70;;;;;;5053313;28;1910;-68
2022/02/18 04:12:38;;;;;;;;;;;18.40;58.70;;;;;;5054967;28;1366;-67
2022/02/18 04:15:04;;;;;;;;;;;18.40;58.70;;;;;;5053882;28;1362;-68
2022/02/18 04:17:30;;;;;;;;;;;18.40;58.70;;;;;;5055174;28;1289;-67
2022/02/18 04:19:55;;;;;;;;;;;18.40;58.70;;;;;;5053190;28;1525;-68
2022/02/18 04:22:21;;;;;;;;;;;18.40;58.70;;;;;;5054526;28;1326;-67
2022/02/18 04:24:46;;;;;;;;;;;18.40;58.70;;;;;;5053556;28;1146;-66
2022/02/18 04:27:12;;;;;;;;;;;18.40;58.70;;;;;;5053555;28;1333;-69
2022/02/18 04:29:37;;;;;;;;;;;18.40;58.70;;;;;;5054379;28;1959;-71
2022/02/18 04:32:03;;;;;;;;;;;18.40;58.70;;;;;;5053454;28;1310;-67
2022/02/18 04:34:28;;;;;;;;;;;18.40;58.70;;;;;;5054390;28;1422;-68
2022/02/18 04:36:53;;;;;;;;;;;18.40;58.70;;;;;;5040758;28;1078;-68
2022/02/18 04:39:19;;;;;;;;;;;18.40;58.80;;;;;;5054149;28;1262;-67
2022/02/18 04:41:44;;;;;;;;;;;18.40;58.80;;;;;;5053131;28;1323;-68
2022/02/18 04:44:10;;;;;;;;;;;18.40;58.80;;;;;;5053053;28;1306;-70
2022/02/18 04:46:35;;;;;;;;;;;18.40;58.80;;;;;;5036560;28;1144;-68
2022/02/18 04:49:01;;;;;;;;;;;18.40;58.80;;;;;;5054122;28;1988;-68
2022/02/18 04:51:26;;;;;;;;;;;18.40;58.80;;;;;;5036106;28;1087;-69
2022/02/18 04:53:51;;;;;;;;;;;18.40;58.80;;;;;;5053975;28;1217;-69
2022/02/18 04:56:17;;;;;;;;;;;18.30;58.70;;;;;;5054218;28;1071;-69
2022/02/18 04:58:42;;;;;;;;;;;18.40;59.40;;;;;;5052580;28;1138;-69
2022/02/18 05:01:11;;;;;;;;;;;18.40;58.80;;;;;;5053981;28;1281;-68
2022/02/18 05:03:37;;;;;;;;;;;18.40;58.80;;;;;;5052854;28;1358;-69
2022/02/18 05:06:03;;;;;;;;;;;18.40;58.80;;;;;;5052423;28;1114;-71
2022/02/18 05:08:28;;;;;;;;;;;18.40;58.90;;;;;;5053643;28;1902;-68
2022/02/18 05:10:54;;;;;;;;;;;18.40;58.80;;;;;;5052741;28;1420;-68
2022/02/18 05:13:19;;;;;;;;;;;18.40;58.80;;;;;;5053790;28;1341;-69
2022/02/18 05:15:44;;;;;;;;;;;18.40;58.90;;;;;;5054155;28;1081;-68
2022/02/18 05:18:10;;;;;;;;;;;18.40;58.90;;;;;;5053721;28;1586;-68
2022/02/18 05:20:35;;;;;;;;;;;18.40;58.90;;;;;;5052679;28;1061;-69
2022/02/18 05:23:01;;;;;;;;;;;18.40;58.80;;;;;;5053471;28;1319;-68
2022/02/18 05:25:26;;;;;;;;;;;18.40;58.90;;;;;;5050759;28;1983;-68
2022/02/18 05:27:52;;;;;;;;;;;18.40;58.90;;;;;;5050396;28;1622;-70
2022/02/18 05:30:18;;;;;;;;;;;18.40;58.90;;;;;;5051671;28;1967;-71
2022/02/18 05:32:43;;;;;;;;;;;18.40;58.90;;;;;;5039891;28;1290;-70
2022/02/18 05:35:08;;;;;;;;;;;18.30;58.90;;;;;;5040445;28;1138;-69
2022/02/18 05:37:34;;;;;;;;;;;18.30;58.90;;;;;;5051410;28;1120;-71
2022/02/18 05:39:59;;;;;;;;;;;18.30;58.90;;;;;;5035413;28;1192;-70
2022/02/18 05:42:25;;;;;;;;;;;18.30;58.90;;;;;;5053349;28;1375;-70
2022/02/18 05:44:50;;;;;;;;;;;18.30;58.90;;;;;;5053284;28;1498;-70
2022/02/18 05:47:16;;;;;;;;;;;18.30;58.90;;;;;;5053294;28;1425;-70
2022/02/18 05:49:41;;;;;;;;;;;18.30;58.90;;;;;;5051368;28;1971;-68
2022/02/18 05:52:07;;;;;;;;;;;18.30;58.90;;;;;;5049777;28;1306;-68
2022/02/18 05:54:32;;;;;;;;;;;18.30;58.90;;;;;;5045601;28;1126;-68
2022/02/18 05:56:57;;;;;;;;;;;18.30;58.90;;;;;;5053423;28;1153;-68
2022/02/18 05:59:23;;;;;;;;;;;18.30;58.90;;;;;;5052735;28;1391;-68
2022/02/18 06:01:48;;;;;;;;;;;18.30;58.90;;;;;;5052920;28;1389;-68
2022/02/18 06:04:14;;;;;;;;;;;18.40;58.90;;;;;;5040935;28;1061;-70
2022/02/18 06:06:40;;;;;;;;;;;18.40;58.80;;;;;;5051478;28;1146;-68
2022/02/18 06:09:05;;;;;;;;;;;18.40;58.70;;;;;;5052607;28;1906;-69
2022/02/18 06:11:30;;;;;;;;;;;18.40;58.60;;;;;;5051532;28;1280;-68
2022/02/18 06:13:56;;;;;;;;;;;18.40;58.50;;;;;;5052972;28;1262;-69
2022/02/18 06:16:22;;;;;;;;;;;18.50;58.50;;;;;;5051625;28;1388;-68
2022/02/18 06:18:48;;;;;;;;;;;18.50;58.40;;;;;;5052462;28;1141;-69
2022/02/18 06:21:13;;;;;;;;;;;18.50;58.30;;;;;;5052607;28;1294;-67
2022/02/18 06:23:38;;;;;;;;;;;18.60;58.20;;;;;;5051458;28;1174;-69
2022/02/18 06:26:04;;;;;;;;;;;18.70;58.10;;;;;;5052607;28;1339;-69
2022/02/18 06:28:29;;;;;;;;;;;18.60;58.00;;;;;;5051217;28;1894;-69
2022/02/18 06:30:55;;;;;;;;;;;18.70;58.00;;;;;;5051285;28;1380;-69
2022/02/18 06:33:20;;;;;;;;;;;18.70;57.90;;;;;;5054037;28;1399;-69
2022/02/18 06:35:45;;;;;;;;;;;18.70;57.80;;;;;;5056314;28;1330;-66
2022/02/18 06:38:11;;;;;;;;;;;18.70;57.70;;;;;;5057204;28;1391;-70
2022/02/18 06:40:37;;;;;;;;;;;18.80;57.70;;;;;;5055165;28;1131;-69
2022/02/18 06:43:02;;;;;;;;;;;18.80;57.70;;;;;;5056636;28;1437;-69
2022/02/18 06:45:27;;;;;;;;;;;18.80;57.60;;;;;;5044332;28;1967;-68
2022/02/18 06:47:53;;;;;;;;;;;18.80;57.60;;;;;;5046742;28;1833;-67
2022/02/18 06:50:19;;;;;;;;;;;18.90;57.60;;;;;;5047850;28;1973;-66
2022/02/18 06:52:44;;;;;;;;;;;18.90;57.50;;;;;;5045251;28;1467;-66
2022/02/18 06:55:10;;;;;;;;;;;18.90;57.50;;;;;;5051926;28;1291;-66
2022/02/18 06:57:40;;;;;;;;;;;18.90;57.40;;;;;;5055232;28;1426;-66
2022/02/18 07:00:05;;;;;;;;;;;18.90;57.40;;;;;;5053200;28;1351;-66
2022/02/18 07:02:31;;;;;;;;;;;18.90;57.40;;;;;;5052751;28;1997;-66
2022/02/18 07:04:56;;;;;;;;;;;18.90;57.30;;;;;;5057137;28;994;-67
2022/02/18 07:07:22;;;;;;;;;;;18.90;57.30;;;;;;5056794;28;1109;-67
2022/02/18 07:09:47;;;;;;;;;;;18.90;57.30;;;;;;5055148;28;1914;-67
2022/02/18 07:12:12;;;;;;;;;;;18.90;57.20;;;;;;5053182;28;1320;-67
2022/02/18 07:14:38;;;;;;;;;;;19.00;57.30;;;;;;5054624;28;1309;-67
2022/02/18 07:17:04;;;;;;;;;;;18.90;57.20;;;;;;5054135;28;1398;-65
2022/02/18 07:19:29;;;;;;;;;;;18.90;57.20;;;;;;5053655;28;1354;-66
2022/02/18 07:21:56;;;;;;;;;;;18.90;57.20;;;;;;5054374;28;1272;-67
2022/02/18 07:24:21;;;;;;;;;;;18.90;57.20;;;;;;5054683;28;1312;-67
2022/02/18 07:26:46;;;;;;;;;;;18.90;57.20;;;;;;5052970;28;1288;-67
2022/02/18 07:29:12;;;;;;;;;;;18.90;57.10;;;;;;5053435;28;1955;-67
2022/02/18 07:31:37;;;;;;;;;;;19.00;57.20;;;;;;5052659;28;1336;-67
2022/02/18 07:34:03;;;;;;;;;;;19.00;57.20;;;;;;5053458;28;1402;-66
2022/02/18 07:36:29;;;;;;;;;;;19.00;57.10;;;;;;5042236;28;1074;-67
2022/02/18 07:38:54;;;;;;;;;;;19.00;57.10;;;;;;5049894;28;1345;-66
2022/02/18 07:41:20;;;;;;;;;;;18.90;57.10;;;;;;5054499;28;1098;-67
2022/02/18 07:43:45;;;;;;;;;;;19.00;57.10;;;;;;5053326;28;1358;-67
2022/02/18 07:46:10;;;;;;;;;;;18.90;57.10;;;;;;5049538;28;1670;-68
2022/02/18 07:48:36;;;;;;;;;;;19.00;57.10;;;;;;5049650;28;1971;-69
2022/02/18 07:51:03;;;;;;;;;;;19.00;57.10;;;;;;5051778;28;1059;-67
2022/02/18 07:53:28;;;;;;;;;;;19.00;57.10;;;;;;5049773;28;1929;-67
2022/02/18 07:55:54;;;;;;;;;;;19.00;57.10;;;;;;5069271;22;2046;-68
2022/02/18 07:58:20;;;;;;;;;;;19.10;57.60;;;;;;5040033;28;2448;-70
2022/02/18 08:00:46;;;;;;;;;;;19.20;56.90;;;;;;5052827;28;1620;-70
2022/02/18 08:03:11;;;;;;;;;;;19.30;56.80;;;;;;5045728;28;1539;-70
2022/02/18 08:05:37;;;;;;;;;;;19.40;57.20;;;;;;5054895;28;1479;-70
2022/02/18 08:08:02;;;;;;;;;;;19.50;56.40;;;;;;5033688;28;1379;-70
2022/02/18 08:10:28;;;;;;;;;;;19.70;56.30;;;;;;5033325;28;1971;-70
2022/02/18 08:12:53;;;;;;;;;;;19.80;56.10;;;;;;5033609;28;1251;-70
2022/02/18 08:15:19;;;;;;;;;;;19.90;55.80;;;;;;5034882;28;1208;-70
2022/02/18 08:17:44;;;;;;;;;;;20.00;55.60;;;;;;5034396;28;1462;-70
2022/02/18 08:20:11;;;;;;;;;;;20.10;55.30;;;;;;5034398;28;1682;-70
2022/02/18 08:22:37;;;;;;;;;;;20.10;55.00;;;;;;5033626;28;1402;-73
2022/02/18 08:25:03;;;;;;;;;;;20.20;54.90;;;;;;5033420;28;1701;-72
2022/02/18 08:27:28;;;;;;;;;;;20.30;54.70;;;;;;5033389;28;1594;-72
2022/02/18 08:29:54;;;;;;;;;;;20.40;54.60;;;;;;5034298;28;1875;-72
2022/02/18 08:32:19;;;;;;;;;;;20.40;54.40;;;;;;5033064;28;1740;-72
2022/02/18 08:34:45;;;;;;;;;;;20.50;54.30;;;;;;5034382;28;1677;-72
2022/02/18 08:37:10;;;;;;;;;;;20.50;54.10;;;;;;5034413;28;1273;-72
2022/02/18 08:39:36;;;;;;;;;;;20.60;54.10;;;;;;5034263;28;1556;-72
2022/02/18 08:42:02;;;;;;;;;;;20.60;54.00;;;;;;5033271;28;1651;-72
2022/02/18 08:44:28;;;;;;;;;;;20.70;53.90;;;;;;5033153;28;1382;-68
2022/02/18 08:46:54;;;;;;;;;;;20.70;53.90;;;;;;5033997;28;1391;-71
2022/02/18 08:49:19;;;;;;;;;;;20.70;53.80;;;;;;5032655;28;1986;-71
2022/02/18 08:51:44;;;;;;;;;;;20.70;53.80;;;;;;5034197;28;1491;-71
2022/02/18 08:54:10;;;;;;;;;;;20.70;53.80;;;;;;5032944;28;1181;-71
2022/02/18 08:56:35;;;;;;;;;;;20.70;53.80;;;;;;5033054;28;1463;-71
2022/02/18 08:59:01;;;;;;;;;;;20.70;53.90;;;;;;5032567;28;1453;-71
2022/02/18 09:01:27;;;;;;;;;;;20.70;53.90;;;;;;5030614;28;1205;-70
2022/02/18 09:03:52;;;;;;;;;;;20.70;53.90;;;;;;5026904;28;1291;-69
2022/02/18 09:06:18;;;;;;;;;;;20.70;53.90;;;;;;5031618;28;1476;-71
2022/02/18 09:08:43;;;;;;;;;;;20.70;53.80;;;;;;5023480;28;1957;-70
2022/02/18 09:11:09;;;;;;;;;;;20.70;53.90;;;;;;5028089;28;1219;-70
2022/02/18 09:13:34;;;;;;;;;;;20.70;53.80;;;;;;5032555;28;1327;-69
2022/02/18 09:15:59;;;;;;;;;;;20.70;53.90;;;;;;5031997;28;1327;-70
2022/02/18 09:18:25;;;;;;;;;;;20.70;53.90;;;;;;5033320;28;1651;-69
2022/02/18 09:20:50;;;;;;;;;;;20.60;53.90;;;;;;5032385;28;1525;-70
2022/02/18 09:23:16;;;;;;;;;;;20.70;53.90;;;;;;5032312;28;1359;-69
2022/02/18 09:25:41;;;;;;;;;;;20.60;53.90;;;;;;5032173;28;1394;-68
2022/02/18 09:28:07;;;;;;;;;;;20.60;54.00;;;;;;5028046;28;2344;-69
2022/02/18 09:30:34;;;;;;;;;;;20.60;54.00;;;;;;5023262;28;2258;-69
2022/02/18 09:32:59;;;;;;;;;;;20.60;54.00;;;;;;5031449;28;1539;-69
2022/02/18 09:35:25;;;;;;;;;;;20.60;54.10;;;;;;5028742;28;1508;-69
2022/02/18 09:37:50;;;;;;;;;;;20.60;54.10;;;;;;5030195;28;1389;-69
2022/02/18 09:40:16;;;;;;;;;;;20.60;54.20;;;;;;5026757;28;1965;-69
2022/02/18 09:42:41;;;;;;;;;;;20.50;54.20;;;;;;5023146;28;1744;-69
2022/02/18 09:45:07;;;;;;;;;;;20.50;54.30;;;;;;5021821;28;1606;-69
2022/02/18 09:47:33;;;;;;;;;;;20.50;54.40;;;;;;5023760;28;1380;-70
2022/02/18 09:49:58;;;;;;;;;;;20.50;54.80;;;;;;5027949;28;1906;-70
2022/02/18 09:52:23;;;;;;;;;;;20.50;54.60;;;;;;5006533;28;1446;-69
2022/02/18 09:54:49;;;;;;;;;;;20.40;54.60;;;;;;5021971;28;2255;-69
2022/02/18 09:57:14;;;;;;;;;;;20.40;54.70;;;;;;5031258;28;1604;-70
2022/02/18 09:59:40;;;;;;;;;;;20.40;54.80;;;;;;5026042;28;2283;-70
2022/02/18 10:02:05;;;;;;;;;;;20.40;54.80;;;;;;5025105;28;1529;-70
2022/02/18 10:04:31;;;;;;;;;;;20.30;54.80;;;;;;5022800;28;2273;-70
2022/02/18 10:06:56;;;;;;;;;;;20.30;54.80;;;;;;5022540;28;1419;-70
2022/02/18 10:09:41;;;;;;;;;;;20.30;54.80;;;;;;5023143;28;1957;-69
2022/02/18 10:12:06;;;;;;;;;;;20.30;54.80;;;;;;5024394;28;1485;-70
2022/02/18 10:14:51;;;;;;;;;;;20.30;54.90;;;;;;5031806;28;1997;-70
2022/02/18 10:17:16;;;;;;;;;;;20.30;54.90;;;;;;5019502;28;1641;-69
2022/02/18 10:19:49;;;;;;;;;;;20.30;55.00;;;;;;5022849;28;1284;-69
2022/02/18 10:22:14;;;;;;;;;;;20.30;55.00;;;;;;5024994;28;1626;-70
2022/02/18 10:24:41;;;;;;;;;;;20.20;55.00;;;;;;5030843;28;1823;-69
2022/02/18 10:27:07;;;;;;;;;;;20.20;55.00;;;;;;5032147;28;1260;-70
2022/02/18 10:29:32;;;;;;;;;;;20.20;55.00;;;;;;5031788;28;1966;-70
2022/02/18 10:32:08;;;;;;;;;;;20.20;55.10;;;;;;5030693;28;1374;-70
2022/02/18 10:34:52;;;;;;;;;;;20.20;55.20;;;;;;5024209;28;1378;-70
2022/02/18 10:37:20;;;;;;;;;;;20.20;55.20;;;;;;5028576;28;1331;-69
2022/02/18 10:39:46;;;;;;;;;;;20.20;55.20;;;;;;5031806;28;1465;-69
2022/02/18 10:42:11;;;;;;;;;;;20.20;55.20;;;;;;5031985;28;1141;-70
2022/02/18 10:44:38;;;;;;;;;;;20.10;55.20;;;;;;5030669;28;1398;-70
2022/02/18 10:47:06;;;;;;;;;;;20.10;55.30;;;;;;5031953;28;1597;-69
2022/02/18 10:49:44;;;;;;;;;;;20.10;55.30;;;;;;5030677;28;1898;-69
2022/02/18 10:52:13;;;;;;;;;;;20.10;55.30;;;;;;5030702;28;1368;-70
2022/02/18 10:54:38;;;;;;;;;;;20.10;55.40;;;;;;5032007;28;1447;-70
2022/02/18 10:57:13;;;;;;;;;;;20.10;55.40;;;;;;5030437;28;1389;-69
2022/02/18 10:59:39;;;;;;;;;;;20.10;55.50;;;;;;5031719;28;1352;-70
2022/02/18 11:02:04;;;;;;;;;;;20.10;55.50;;;;;;5031961;28;1668;-70
2022/02/18 11:04:29;;;;;;;;;;;20.00;55.50;;;;;;5025322;28;1161;-70
2022/02/18 11:07:08;;;;;;;;;;;20.00;55.50;;;;;;5016365;28;2033;-70
2022/02/18 11:09:34;;;;;;;;;;;20.00;55.50;;;;;;5041082;28;1906;-69
2022/02/18 11:12:03;;;;;;;;;;;20.00;55.50;;;;;;5031283;28;1460;-70
2022/02/18 11:14:31;;;;;;;;;;;20.00;55.60;;;;;;5030520;28;1432;-70
2022/02/18 11:16:57;;;;;;;;;;;20.00;55.60;;;;;;5030226;28;1655;-70
2022/02/18 11:19:22;;;;;;;;;;;20.00;55.60;;;;;;5032629;28;1396;-69
2022/02/18 11:21:49;;;;;;;;;;;20.00;55.60;;;;;;5034118;28;1685;-68
2022/02/18 11:24:15;;;;;;;;;;;20.00;55.70;;;;;;5034272;28;1668;-69
2022/02/18 11:26:41;;;;;;;;;;;19.90;55.60;;;;;;5031986;28;2355;-69
2022/02/18 11:29:08;;;;;;;;;;;19.90;55.70;;;;;;5017160;28;1895;-69
2022/02/18 11:31:37;;;;;;;;;;;19.90;55.70;;;;;;5031033;28;1970;-68
2022/02/18 11:34:21;;;;;;;;;;;19.90;55.70;;;;;;5027676;28;1382;-69
2022/02/18 11:36:54;;;;;;;;;;;19.90;55.70;;;;;;5027731;28;1676;-69
2022/02/18 11:39:20;;;;;;;;;;;19.90;55.70;;;;;;5033660;28;1417;-70
2022/02/18 11:41:54;;;;;;;;;;;19.90;55.70;;;;;;5034626;28;1220;-69
2022/02/18 11:44:30;;;;;;;;;;;19.90;55.60;;;;;;5033691;28;1143;-69
2022/02/18 11:47:14;;;;;;;;;;;20.00;55.60;;;;;;5032681;28;1814;-69
2022/02/18 11:49:40;;;;;;;;;;;20.00;55.60;;;;;;5046631;28;1941;-68
2022/02/18 11:52:10;;;;;;;;;;;20.00;55.60;;;;;;5031458;28;1848;-68
2022/02/18 11:54:36;;;;;;;;;;;20.00;55.60;;;;;;5029182;28;1366;-69
2022/02/18 11:57:02;;;;;;;;;;;20.00;55.50;;;;;;5022215;28;1415;-68
2022/02/18 11:59:41;;;;;;;;;;;20.00;55.50;;;;;;5034605;28;1227;-68
2022/02/18 12:02:09;;;;;;;;;;;20.00;55.50;;;;;;5033796;28;1378;-68
2022/02/18 12:04:35;;;;;;;;;;;20.00;55.50;;;;;;5033503;28;1715;-68
2022/02/18 12:07:13;;;;;;;;;;;20.00;55.50;;;;;;5033466;28;1669;-68
2022/02/18 12:09:47;;;;;;;;;;;20.00;55.50;;;;;;5034572;28;1968;-68
2022/02/18 12:12:22;;;;;;;;;;;20.00;55.50;;;;;;5034751;28;1611;-68
2022/02/18 12:14:48;;;;;;;;;;;20.00;55.50;;;;;;5034775;28;1666;-70
2022/02/18 12:17:13;;;;;;;;;;;20.00;56.10;;;;;;5033270;28;1762;-68
2022/02/18 12:19:39;;;;;;;;;;;20.00;55.50;;;;;;5034646;28;1427;-68
2022/02/18 12:22:05;;;;;;;;;;;20.00;55.60;;;;;;5027596;28;1195;-70
2022/02/18 12:24:30;;;;;;;;;;;20.00;55.60;;;;;;5038965;28;1407;-70
2022/02/18 12:27:16;;;;;;;;;;;20.00;55.60;;;;;;5023264;28;1409;-69
2022/02/18 12:29:41;;;;;;;;;;;20.00;55.60;;;;;;5019614;28;1914;-70
2022/02/18 12:32:07;;;;;;;;;;;20.00;55.60;;;;;;5025472;28;1242;-71
2022/02/18 12:34:38;;;;;;;;;;;20.00;55.70;;;;;;5024174;28;1380;-70
2022/02/18 12:37:13;;;;;;;;;;;20.00;55.70;;;;;;5024212;28;1449;-69
2022/02/18 12:39:40;;;;;;;;;;;19.90;55.60;;;;;;5022445;28;1204;-68
2022/02/18 12:42:06;;;;;;;;;;;19.90;55.70;;;;;;5025193;28;1451;-69
2022/02/18 12:44:32;;;;;;;;;;;19.90;55.70;;;;;;5023006;28;1375;-69
2022/02/18 12:46:57;;;;;;;;;;;19.90;55.70;;;;;;5028031;28;1516;-70
2022/02/18 12:49:22;;;;;;;;;;;19.90;55.70;;;;;;5031543;28;1902;-69
2022/02/18 12:52:03;;;;;;;;;;;19.90;56.30;;;;;;5032824;28;1584;-69
2022/02/18 12:54:43;;;;;;;;;;;19.90;55.70;;;;;;5033375;28;2217;-69
2022/02/18 12:57:15;;;;;;;;;;;19.90;55.70;;;;;;5031893;28;1536;-69
2022/02/18 12:59:41;;;;;;;;;;;20.00;55.70;;;;;;5027076;28;1377;-69
2022/02/18 13:02:07;;;;;;;;;;;20.00;55.70;;;;;;5032792;28;1674;-70
2022/02/18 13:04:32;;;;;;;;;;;20.00;55.60;;;;;;5032833;28;1643;-69
2022/02/18 13:06:58;;;;;;;;;;;20.00;55.60;;;;;;5021650;28;1365;-69
2022/02/18 13:09:26;;;;;;;;;;;20.00;55.50;;;;;;5031996;28;1913;-69
2022/02/18 13:11:51;;;;;;;;;;;20.00;55.50;;;;;;5048973;28;1376;-69
2022/02/18 13:14:17;;;;;;;;;;;20.10;55.50;;;;;;5032646;28;1621;-72
2022/02/18 13:16:47;;;;;;;;;;;20.10;55.50;;;;;;5022717;28;2492;-69
2022/02/18 13:19:13;;;;;;;;;;;20.10;55.50;;;;;;5030694;28;1161;-70
2022/02/18 13:21:39;;;;;;;;;;;20.10;55.50;;;;;;5033015;28;1371;-69
2022/02/18 13:24:04;;;;;;;;;;;20.10;55.40;;;;;;5030020;28;2268;-70
2022/02/18 13:26:30;;;;;;;;;;;20.10;55.40;;;;;;5022413;28;2177;-70
2022/02/18 13:28:59;;;;;;;;;;;20.10;55.40;;;;;;5028360;28;1969;-71
2022/02/18 13:31:24;;;;;;;;;;;20.10;55.40;;;;;;5027205;28;2128;-69
2022/02/18 13:33:51;;;;;;;;;;;20.10;55.40;;;;;;5036104;28;1371;-70
2022/02/18 13:36:17;;;;;;;;;;;20.00;55.30;;;;;;5025695;28;1824;-70
2022/02/18 13:38:47;;;;;;;;;;;20.00;55.40;;;;;;5030539;28;2080;-71
2022/02/18 13:41:12;;;;;;;;;;;20.00;55.40;;;;;;5020844;28;2052;-71
2022/02/18 13:43:38;;;;;;;;;;;20.00;55.40;;;;;;5030435;28;1981;-71
2022/02/18 13:46:04;;;;;;;;;;;20.00;55.50;;;;;;5035561;28;1501;-69
2022/02/18 13:48:30;;;;;;;;;;;20.00;55.50;;;;;;5028455;28;1902;-68
2022/02/18 13:50:55;;;;;;;;;;;20.00;55.50;;;;;;5022878;28;2184;-70
2022/02/18 13:53:21;;;;;;;;;;;20.00;55.50;;;;;;5023440;28;1291;-69
2022/02/18 13:55:46;;;;;;;;;;;20.00;55.50;;;;;;5023935;28;1359;-69
2022/02/18 13:58:24;;;;;;;;;;;20.00;55.50;;;;;;5059107;22;3594;-68
2022/02/18 14:00:50;;;;;;;;;;;20.00;55.50;;;;;;5045625;28;1445;-67
2022/02/18 14:03:17;;;;;;;;;;;20.00;55.50;;;;;;5050299;28;1621;-68
2022/02/18 14:05:42;;;;;;;;;;;20.00;55.60;;;;;;5050680;28;1655;-68
2022/02/18 14:08:09;;;;;;;;;;;19.90;55.50;;;;;;5051293;28;1633;-69
2022/02/18 14:10:48;;;;;;;;;;;20.00;55.60;;;;;;5049885;28;1976;-68
2022/02/18 14:13:23;;;;;;;;;;;20.00;55.60;;;;;;5050413;28;1472;-67
2022/02/18 14:16:06;;;;;;;;;;;20.00;55.60;;;;;;5043702;28;2101;-68
2022/02/18 14:18:32;;;;;;;;;;;19.90;55.60;;;;;;5047854;28;1517;-68
2022/02/18 14:20:58;;;;;;;;;;;19.90;55.60;;;;;;5040061;28;1476;-67
2022/02/18 14:23:30;;;;;;;;;;;19.90;55.60;;;;;;5051216;28;1604;-67
2022/02/18 14:25:56;;;;;;;;;;;19.90;55.60;;;;;;5056006;28;1350;-67